sensor_id;sensor_type;location;lat;lon;timestamp;temperature;humidity
29007;DHT22;16104;48.642;9.008;2023-10-09T01:02:04;17.60;49.60
29007;DHT22;16104;48.642;9.008;2023-10-09T01:07:00;17.50;49.50
29007;DHT22;16104;48.642;9.008;2023-10-09T01:12:16;17.60;49.60
29007;DHT22;16104;48.642;9.008;2023-10-09T02:03:03;17.40;50.00
29007;DHT22;16104;48.642;9.008;2023-10-09T02:08:01;17.40;50.10
29007;DHT22;16104;48.642;9.008;2023-10-09T02:13:01;17.40;50.10
29007;DHT22;16104;48.642;9.008;2023-10-09T03:04:26;17.60;49.50
29007;DHT22;16104;48.642;9.008;2023-10-09T03:09:26;17.60;49.40
29007;DHT22;16104;48.642;9.008;2023-10-09T03:14:22;17.60;49.40
29007;DHT22;16104;48.642;9.008;2023-10-09T03:19:26;17.50;49.40
29007;DHT22;16104;48.642;9.008;2023-10-09T03:24:26;17.50;49.50
29007;DHT22;16104;48.642;9.008;2023-10-09T03:29:23;17.50;49.50
29007;DHT22;16104;48.642;9.008;2023-10-09T03:34:19;17.50;49.50
29007;DHT22;16104;48.642;9.008;2023-10-09T03:39:15;17.50;49.40
29007;DHT22;16104;48.642;9.008;2023-10-09T03:44:20;17.40;49.70
29007;DHT22;16104;48.642;9.008;2023-10-09T03:49:15;17.40;49.60
29007;DHT22;16104;48.642;9.008;2023-10-09T03:54:19;17.40;49.40
29007;DHT22;16104;48.642;9.008;2023-10-09T03:59:17;17.50;49.50
29007;DHT22;16104;48.642;9.008;2023-10-09T04:04:12;17.40;49.50
29007;DHT22;16104;48.642;9.008;2023-10-09T04:09:10;17.40;49.50
29007;DHT22;16104;48.642;9.008;2023-10-09T04:14:14;17.50;49.70
29007;DHT22;16104;48.642;9.008;2023-10-09T04:19:22;17.40;49.40
29007;DHT22;16104;48.642;9.008;2023-10-09T04:24:17;17.40;49.40
29007;DHT22;16104;48.642;9.008;2023-10-09T04:29:14;17.40;49.60
29007;DHT22;16104;48.642;9.008;2023-10-09T04:34:23;17.40;49.40
29007;DHT22;16104;48.642;9.008;2023-10-09T04:39:18;17.40;49.40
29007;DHT22;16104;48.642;9.008;2023-10-09T04:44:26;17.40;49.60
29007;DHT22;16104;48.642;9.008;2023-10-09T04:49:32;17.40;49.70
29007;DHT22;16104;48.642;9.008;2023-10-09T04:54:44;17.30;49.70
29007;DHT22;16104;48.642;9.008;2023-10-09T04:59:59;17.20;49.70
29007;DHT22;16104;48.642;9.008;2023-10-09T05:04:54;17.20;49.70
29007;DHT22;16104;48.642;9.008;2023-10-09T05:10:10;17.20;50.00
29007;DHT22;16104;48.642;9.008;2023-10-09T05:15:10;17.20;50.00
29007;DHT22;16104;48.642;9.008;2023-10-09T05:20:08;17.20;50.10
29007;DHT22;16104;48.642;9.008;2023-10-09T05:25:25;17.10;50.00
29007;DHT22;16104;48.642;9.008;2023-10-09T05:30:40;17.10;50.20
29007;DHT22;16104;48.642;9.008;2023-10-09T05:35:37;17.10;50.20
29007;DHT22;16104;48.642;9.008;2023-10-09T05:40:35;17.00;50.40
29007;DHT22;16104;48.642;9.008;2023-10-09T05:45:31;17.00;50.50
29007;DHT22;16104;48.642;9.008;2023-10-09T05:50:45;17.00;50.60
29007;DHT22;16104;48.642;9.008;2023-10-09T05:56:01;17.00;50.60
29007;DHT22;16104;48.642;9.008;2023-10-09T06:01:22;16.90;50.80
29007;DHT22;16104;48.642;9.008;2023-10-09T06:06:44;16.90;50.90
29007;DHT22;16104;48.642;9.008;2023-10-09T06:11:41;16.80;51.00
29007;DHT22;16104;48.642;9.008;2023-10-09T06:16:44;16.80;51.20
29007;DHT22;16104;48.642;9.008;2023-10-09T06:21:56;16.80;51.30
29007;DHT22;16104;48.642;9.008;2023-10-09T06:27:07;16.80;51.50
29007;DHT22;16104;48.642;9.008;2023-10-09T06:32:10;16.80;51.70
29007;DHT22;16104;48.642;9.008;2023-10-09T06:37:21;16.80;51.80
29007;DHT22;16104;48.642;9.008;2023-10-09T06:42:20;16.80;51.90
29007;DHT22;16104;48.642;9.008;2023-10-09T06:47:34;16.80;52.00
29007;DHT22;16104;48.642;9.008;2023-10-09T06:52:36;16.80;52.20
29007;DHT22;16104;48.642;9.008;2023-10-09T06:57:51;16.90;52.20
29007;DHT22;16104;48.642;9.008;2023-10-09T07:02:49;17.00;52.30
29007;DHT22;16104;48.642;9.008;2023-10-09T07:07:45;17.00;52.40
29007;DHT22;16104;48.642;9.008;2023-10-09T07:12:50;17.10;52.50
29007;DHT22;16104;48.642;9.008;2023-10-09T07:17:50;17.20;52.60
29007;DHT22;16104;48.642;9.008;2023-10-09T07:22:48;17.30;52.60
29007;DHT22;16104;48.642;9.008;2023-10-09T07:27:51;17.40;52.30
29007;DHT22;16104;48.642;9.008;2023-10-09T07:32:49;17.50;52.40
29007;DHT22;16104;48.642;9.008;2023-10-09T07:37:47;17.70;52.40
29007;DHT22;16104;48.642;9.008;2023-10-09T07:42:46;17.80;52.40
29007;DHT22;16104;48.642;9.008;2023-10-09T07:47:48;17.90;52.30
29007;DHT22;16104;48.642;9.008;2023-10-09T07:52:57;18.10;52.50
29007;DHT22;16104;48.642;9.008;2023-10-09T07:58:10;18.30;52.50
29007;DHT22;16104;48.642;9.008;2023-10-09T08:03:07;18.40;52.30
29007;DHT22;16104;48.642;9.008;2023-10-09T08:08:19;18.50;52.40
29007;DHT22;16104;48.642;9.008;2023-10-09T08:13:24;18.60;52.50
29007;DHT22;16104;48.642;9.008;2023-10-09T08:18:38;18.70;52.20
29007;DHT22;16104;48.642;9.008;2023-10-09T08:23:40;18.90;51.80
29007;DHT22;16104;48.642;9.008;2023-10-09T08:28:45;19.10;51.80
29007;DHT22;16104;48.642;9.008;2023-10-09T08:33:40;19.20;51.70
29007;DHT22;16104;48.642;9.008;2023-10-09T08:38:36;19.40;51.70
29007;DHT22;16104;48.642;9.008;2023-10-09T08:43:32;19.60;51.50
29007;DHT22;16104;48.642;9.008;2023-10-09T08:48:30;19.70;51.10
29007;DHT22;16104;48.642;9.008;2023-10-09T08:53:25;19.80;51.10
29007;DHT22;16104;48.642;9.008;2023-10-09T08:58:24;20.00;51.00
29007;DHT22;16104;48.642;9.008;2023-10-09T09:03:40;20.10;51.00
29007;DHT22;16104;48.642;9.008;2023-10-09T09:08:36;20.30;51.20
29007;DHT22;16104;48.642;9.008;2023-10-09T09:13:32;20.40;51.00
29007;DHT22;16104;48.642;9.008;2023-10-09T09:18:29;20.60;50.80
29007;DHT22;16104;48.642;9.008;2023-10-09T09:23:32;20.70;50.20
29007;DHT22;16104;48.642;9.008;2023-10-09T09:28:28;20.90;49.80
29007;DHT22;16104;48.642;9.008;2023-10-09T09:33:34;21.00;49.70
29007;DHT22;16104;48.642;9.008;2023-10-09T09:38:35;21.20;49.80
29007;DHT22;16104;48.642;9.008;2023-10-09T09:48:57;21.60;49.30
29007;DHT22;16104;48.642;9.008;2023-10-09T09:53:55;21.70;49.00
29007;DHT22;16104;48.642;9.008;2023-10-09T09:58:51;21.90;48.90
29007;DHT22;16104;48.642;9.008;2023-10-09T10:03:56;22.10;48.80
29007;DHT22;16104;48.642;9.008;2023-10-09T10:08:54;22.20;48.50
29007;DHT22;16104;48.642;9.008;2023-10-09T10:13:54;22.40;48.50
29007;DHT22;16104;48.642;9.008;2023-10-09T10:19:04;22.70;48.50
29007;DHT22;16104;48.642;9.008;2023-10-09T10:24:03;22.90;48.10
29007;DHT22;16104;48.642;9.008;2023-10-09T10:29:14;23.20;47.90
29007;DHT22;16104;48.642;9.008;2023-10-09T10:34:23;23.50;47.00
29007;DHT22;16104;48.642;9.008;2023-10-09T10:39:19;23.80;47.20
29007;DHT22;16104;48.642;9.008;2023-10-09T10:44:25;24.10;46.70
29007;DHT22;16104;48.642;9.008;2023-10-09T10:49:31;24.40;45.10
29007;DHT22;16104;48.642;9.008;2023-10-09T10:54:34;24.70;44.60
29007;DHT22;16104;48.642;9.008;2023-10-09T10:59:30;24.90;44.40
29007;DHT22;16104;48.642;9.008;2023-10-09T11:04:32;25.20;43.40
29007;DHT22;16104;48.642;9.008;2023-10-09T11:09:27;25.40;42.70
29007;DHT22;16104;48.642;9.008;2023-10-09T11:14:32;25.60;42.00
29007;DHT22;16104;48.642;9.008;2023-10-09T11:19:38;25.80;41.60
29007;DHT22;16104;48.642;9.008;2023-10-09T11:24:35;25.80;41.40
29007;DHT22;16104;48.642;9.008;2023-10-09T11:29:35;25.90;41.60
29007;DHT22;16104;48.642;9.008;2023-10-09T11:34:39;26.10;41.30
29007;DHT22;16104;48.642;9.008;2023-10-09T11:39:40;26.20;40.90
29007;DHT22;16104;48.642;9.008;2023-10-09T11:44:48;26.30;40.50
29007;DHT22;16104;48.642;9.008;2023-10-09T11:49:51;26.30;40.20
29007;DHT22;16104;48.642;9.008;2023-10-09T11:54:56;26.30;39.70
29007;DHT22;16104;48.642;9.008;2023-10-09T11:59:51;26.30;40.00
29007;DHT22;16104;48.642;9.008;2023-10-09T12:04:47;26.30;40.10
29007;DHT22;16104;48.642;9.008;2023-10-09T12:09:44;26.20;40.30
29007;DHT22;16104;48.642;9.008;2023-10-09T12:14:39;26.20;39.60
29007;DHT22;16104;48.642;9.008;2023-10-09T12:19:39;26.20;39.90
29007;DHT22;16104;48.642;9.008;2023-10-09T12:24:35;26.10;39.80
29007;DHT22;16104;48.642;9.008;2023-10-09T12:29:30;26.10;39.80
29007;DHT22;16104;48.642;9.008;2023-10-09T12:34:26;26.10;40.30
29007;DHT22;16104;48.642;9.008;2023-10-09T12:39:22;26.20;40.30
29007;DHT22;16104;48.642;9.008;2023-10-09T12:44:17;26.20;40.40
29007;DHT22;16104;48.642;9.008;2023-10-09T12:49:14;26.40;40.70
29007;DHT22;16104;48.642;9.008;2023-10-09T12:54:09;26.50;40.80
29007;DHT22;16104;48.642;9.008;2023-10-09T12:59:05;26.70;40.00
29007;DHT22;16104;48.642;9.008;2023-10-09T13:04:02;26.90;39.70
29007;DHT22;16104;48.642;9.008;2023-10-09T13:09:06;27.30;38.90
29007;DHT22;16104;48.642;9.008;2023-10-09T13:14:02;27.60;38.60
29007;DHT22;16104;48.642;9.008;2023-10-09T13:19:06;27.90;37.40
29007;DHT22;16104;48.642;9.008;2023-10-09T13:24:05;28.20;36.40
29007;DHT22;16104;48.642;9.008;2023-10-09T13:29:04;28.40;35.30
29007;DHT22;16104;48.642;9.008;2023-10-09T13:34:05;28.50;34.80
29007;DHT22;16104;48.642;9.008;2023-10-09T13:39:04;28.80;33.60
29007;DHT22;16104;48.642;9.008;2023-10-09T13:44:18;28.90;33.00
29007;DHT22;16104;48.642;9.008;2023-10-09T13:49:14;29.00;32.90
29007;DHT22;16104;48.642;9.008;2023-10-09T13:54:17;29.00;32.50
29007;DHT22;16104;48.642;9.008;2023-10-09T13:59:27;29.00;32.00
29007;DHT22;16104;48.642;9.008;2023-10-09T14:04:23;29.00;31.60
29007;DHT22;16104;48.642;9.008;2023-10-09T14:09:19;29.00;31.60
29007;DHT22;16104;48.642;9.008;2023-10-09T14:14:26;29.10;31.60
29007;DHT22;16104;48.642;9.008;2023-10-09T14:19:22;29.20;31.10
29007;DHT22;16104;48.642;9.008;2023-10-09T14:24:18;29.40;31.10
29007;DHT22;16104;48.642;9.008;2023-10-09T14:29:14;29.70;29.80
29007;DHT22;16104;48.642;9.008;2023-10-09T14:34:12;29.80;29.20
29007;DHT22;16104;48.642;9.008;2023-10-09T14:39:07;29.90;28.70
29007;DHT22;16104;48.642;9.008;2023-10-09T14:44:03;29.90;28.40
29007;DHT22;16104;48.642;9.008;2023-10-09T14:49:00;29.90;28.60
29007;DHT22;16104;48.642;9.008;2023-10-09T14:53:59;29.80;28.80
29007;DHT22;16104;48.642;9.008;2023-10-09T14:58:58;29.70;28.20
29007;DHT22;16104;48.642;9.008;2023-10-09T15:03:55;29.60;28.60
29007;DHT22;16104;48.642;9.008;2023-10-09T15:08:52;29.60;29.00
29007;DHT22;16104;48.642;9.008;2023-10-09T15:13:48;29.50;28.80
29007;DHT22;16104;48.642;9.008;2023-10-09T15:18:43;29.50;28.90
29007;DHT22;16104;48.642;9.008;2023-10-09T15:23:39;29.40;28.90
29007;DHT22;16104;48.642;9.008;2023-10-09T15:28:34;29.30;29.20
29007;DHT22;16104;48.642;9.008;2023-10-09T15:33:30;29.20;28.80
29007;DHT22;16104;48.642;9.008;2023-10-09T15:38:26;29.10;29.10
29007;DHT22;16104;48.642;9.008;2023-10-09T15:43:24;28.90;29.10
29007;DHT22;16104;48.642;9.008;2023-10-09T15:48:20;28.70;29.70
29007;DHT22;16104;48.642;9.008;2023-10-09T15:53:17;28.60;29.90
29007;DHT22;16104;48.642;9.008;2023-10-09T15:58:12;28.40;30.20
29007;DHT22;16104;48.642;9.008;2023-10-09T16:03:08;28.20;30.40
29007;DHT22;16104;48.642;9.008;2023-10-09T16:08:05;28.00;30.60
29007;DHT22;16104;48.642;9.008;2023-10-09T16:13:01;27.80;31.30
29007;DHT22;16104;48.642;9.008;2023-10-09T16:17:56;27.60;31.40
29007;DHT22;16104;48.642;9.008;2023-10-09T16:23:01;27.50;31.70
29007;DHT22;16104;48.642;9.008;2023-10-09T16:28:01;27.30;32.10
29007;DHT22;16104;48.642;9.008;2023-10-09T16:32:57;27.10;32.30
29007;DHT22;16104;48.642;9.008;2023-10-09T16:37:53;27.00;32.70
29007;DHT22;16104;48.642;9.008;2023-10-09T16:42:49;26.80;33.10
29007;DHT22;16104;48.642;9.008;2023-10-09T16:47:48;26.60;33.20
29007;DHT22;16104;48.642;9.008;2023-10-09T16:52:46;26.40;33.60
29007;DHT22;16104;48.642;9.008;2023-10-09T16:57:42;26.30;33.80
29007;DHT22;16104;48.642;9.008;2023-10-09T17:02:39;26.10;34.00
29007;DHT22;16104;48.642;9.008;2023-10-09T17:07:36;25.90;34.30
29007;DHT22;16104;48.642;9.008;2023-10-09T17:12:34;25.70;34.40
29007;DHT22;16104;48.642;9.008;2023-10-09T17:17:31;25.50;34.60
29007;DHT22;16104;48.642;9.008;2023-10-09T17:22:26;25.40;34.80
29007;DHT22;16104;48.642;9.008;2023-10-09T17:27:22;25.20;35.80
29007;DHT22;16104;48.642;9.008;2023-10-09T17:32:17;25.00;35.40
29007;DHT22;16104;48.642;9.008;2023-10-09T17:37:13;24.80;35.80
29007;DHT22;16104;48.642;9.008;2023-10-09T17:42:08;24.60;36.10
29007;DHT22;16104;48.642;9.008;2023-10-09T17:47:04;24.40;36.30
29007;DHT22;16104;48.642;9.008;2023-10-09T17:52:00;24.30;36.30
29007;DHT22;16104;48.642;9.008;2023-10-09T17:56:56;24.10;36.50
29007;DHT22;16104;48.642;9.008;2023-10-09T18:01:55;23.90;36.90
29007;DHT22;16104;48.642;9.008;2023-10-09T18:06:52;23.80;37.30
29007;DHT22;16104;48.642;9.008;2023-10-09T18:11:48;23.60;37.40
29007;DHT22;16104;48.642;9.008;2023-10-09T18:16:43;23.50;37.70
29007;DHT22;16104;48.642;9.008;2023-10-09T18:21:40;23.40;38.00
29007;DHT22;16104;48.642;9.008;2023-10-09T18:26:38;23.20;38.00
29007;DHT22;16104;48.642;9.008;2023-10-09T18:31:34;23.10;38.30
29007;DHT22;16104;48.642;9.008;2023-10-09T18:36:36;22.90;38.60
29007;DHT22;16104;48.642;9.008;2023-10-09T18:41:35;22.90;39.10
29007;DHT22;16104;48.642;9.008;2023-10-09T18:46:31;22.70;39.10
29007;DHT22;16104;48.642;9.008;2023-10-09T18:51:26;22.60;39.40
29007;DHT22;16104;48.642;9.008;2023-10-09T18:56:24;22.50;40.00
29007;DHT22;16104;48.642;9.008;2023-10-09T19:01:20;22.40;40.20
29007;DHT22;16104;48.642;9.008;2023-10-09T19:06:15;22.30;40.50
29007;DHT22;16104;48.642;9.008;2023-10-09T19:11:16;22.20;40.70
29007;DHT22;16104;48.642;9.008;2023-10-09T19:16:15;22.10;41.10
29007;DHT22;16104;48.642;9.008;2023-10-09T19:21:10;22.00;42.10
29007;DHT22;16104;48.642;9.008;2023-10-09T19:26:08;21.90;41.50
29007;DHT22;16104;48.642;9.008;2023-10-09T19:31:10;21.80;42.00
29007;DHT22;16104;48.642;9.008;2023-10-09T19:36:08;21.70;41.90
29007;DHT22;16104;48.642;9.008;2023-10-09T19:41:08;21.70;42.20
29007;DHT22;16104;48.642;9.008;2023-10-09T19:46:06;21.60;42.40
29007;DHT22;16104;48.642;9.008;2023-10-09T19:51:03;21.50;42.50
29007;DHT22;16104;48.642;9.008;2023-10-09T19:55:59;21.50;42.70
29007;DHT22;16104;48.642;9.008;2023-10-09T20:00:57;21.40;42.90
29007;DHT22;16104;48.642;9.008;2023-10-09T20:05:53;21.40;43.30
29007;DHT22;16104;48.642;9.008;2023-10-09T20:10:49;21.40;43.20
29007;DHT22;16104;48.642;9.008;2023-10-09T20:15:45;21.30;43.30
29007;DHT22;16104;48.642;9.008;2023-10-09T20:20:44;21.30;43.20
29007;DHT22;16104;48.642;9.008;2023-10-09T20:25:42;21.30;43.50
29007;DHT22;16104;48.642;9.008;2023-10-09T20:30:41;21.20;43.20
29007;DHT22;16104;48.642;9.008;2023-10-09T20:35:36;21.20;43.10
29007;DHT22;16104;48.642;9.008;2023-10-09T20:40:38;21.20;43.10
29007;DHT22;16104;48.642;9.008;2023-10-09T20:45:39;21.20;43.50
29007;DHT22;16104;48.642;9.008;2023-10-09T20:50:34;21.20;43.60
29007;DHT22;16104;48.642;9.008;2023-10-09T20:55:33;21.10;43.70
29007;DHT22;16104;48.642;9.008;2023-10-09T21:00:29;21.10;43.70
29007;DHT22;16104;48.642;9.008;2023-10-09T21:05:27;21.10;44.10
29007;DHT22;16104;48.642;9.008;2023-10-09T21:10:22;21.00;44.20
29007;DHT22;16104;48.642;9.008;2023-10-09T21:15:19;20.90;44.30
29007;DHT22;16104;48.642;9.008;2023-10-09T21:20:22;20.90;44.60
29007;DHT22;16104;48.642;9.008;2023-10-09T21:25:24;20.80;44.80
29007;DHT22;16104;48.642;9.008;2023-10-09T21:30:24;20.70;44.80
29007;DHT22;16104;48.642;9.008;2023-10-09T21:35:21;20.70;45.40
29007;DHT22;16104;48.642;9.008;2023-10-09T21:40:17;20.50;45.30
29007;DHT22;16104;48.642;9.008;2023-10-09T21:45:19;20.50;45.50
29007;DHT22;16104;48.642;9.008;2023-10-09T21:50:15;20.40;45.90
29007;DHT22;16104;48.642;9.008;2023-10-09T21:55:11;20.30;46.20
29007;DHT22;16104;48.642;9.008;2023-10-09T22:00:07;20.20;46.50
29007;DHT22;16104;48.642;9.008;2023-10-09T22:05:08;20.10;46.70
29007;DHT22;16104;48.642;9.008;2023-10-09T22:10:07;20.00;46.80
29007;DHT22;16104;48.642;9.008;2023-10-09T22:15:04;19.90;47.10
29007;DHT22;16104;48.642;9.008;2023-10-09T22:20:01;19.90;47.40
29007;DHT22;16104;48.642;9.008;2023-10-09T22:24:59;19.80;47.70
29007;DHT22;16104;48.642;9.008;2023-10-09T22:29:54;19.70;47.80
29007;DHT22;16104;48.642;9.008;2023-10-09T22:34:50;19.70;48.10
29007;DHT22;16104;48.642;9.008;2023-10-09T22:39:46;19.60;48.60
29007;DHT22;16104;48.642;9.008;2023-10-09T22:44:41;19.50;48.70
29007;DHT22;16104;48.642;9.008;2023-10-09T22:49:38;19.50;48.80
29007;DHT22;16104;48.642;9.008;2023-10-09T22:54:34;19.40;48.70
29007;DHT22;16104;48.642;9.008;2023-10-09T22:59:30;19.40;48.70
29007;DHT22;16104;48.642;9.008;2023-10-09T23:04:27;19.40;49.00
29007;DHT22;16104;48.642;9.008;2023-10-09T23:09:35;19.30;49.00
29007;DHT22;16104;48.642;9.008;2023-10-09T23:14:30;19.30;49.30
29007;DHT22;16104;48.642;9.008;2023-10-09T23:19:26;19.20;49.40
29007;DHT22;16104;48.642;9.008;2023-10-09T23:24:28;19.10;49.40
29007;DHT22;16104;48.642;9.008;2023-10-09T23:29:24;19.00;49.60
29007;DHT22;16104;48.642;9.008;2023-10-09T23:34:25;18.90;49.60
29007;DHT22;16104;48.642;9.008;2023-10-09T23:39:29;18.90;50.00
29007;DHT22;16104;48.642;9.008;2023-10-09T23:44:48;18.80;50.20
29007;DHT22;16104;48.642;9.008;2023-10-09T23:49:43;18.70;50.50
29007;DHT22;16104;48.642;9.008;2023-10-09T23:54:42;18.60;50.50
29007;DHT22;16104;48.642;9.008;2023-10-09T23:59:47;18.50;51.00
